Pilot Mound, Iowa
Current Conditions -  °F | °C
As of 9:15 AM on Wednesday 22 Oct 2014 (Local Time) from KBNW Reporting Station
Broken Clouds Broken Clouds  
Wind Chill: 39°   Ceiling: 4500
Heat Index: 45°   Visibility: 10mi
Dew Point: 41°   Wind: 10mph
Humidity: 87%   Direction: 140°SE
Pressure: 30.2"   Gusts: 22mph
Location:  42.16°N, 94.02°W
Report Text: KBNW 221415Z AUTO 14009G19KT 10SM BKN045 BKN055 BKN080 07/05 A3020 RMK AO2
Loading
Personal Weather Stations






























Interactive Weather Map
Tropical Storm Tracking
New forecast layout! Learn more

10-Day Weather Forecast

Advertisements
Track Severe Weather on mobile